createdAt,value
2023-01-15T00:00:52.590Z,1.7
2023-01-15T00:02:01.718Z,1.7
2023-01-15T00:03:10.336Z,1.1
2023-01-15T00:04:18.790Z,1.1
2023-01-15T00:05:27.289Z,1.1
2023-01-15T00:06:35.875Z,1.4
2023-01-15T00:07:44.354Z,1.4
2023-01-15T00:08:52.886Z,1.4
2023-01-15T00:10:01.564Z,1.3
2023-01-15T00:11:10.463Z,1.3
2023-01-15T00:12:18.994Z,1.3
2023-01-15T00:13:27.746Z,2.1
2023-01-15T00:14:36.462Z,2.1
2023-01-15T00:15:45.024Z,2.1
2023-01-15T00:16:53.576Z,0.9
2023-01-15T00:18:02.262Z,0.9
2023-01-15T00:19:11.007Z,0.9
2023-01-15T00:20:20.114Z,1.1
2023-01-15T00:21:30.470Z,1.1
2023-01-15T00:22:38.969Z,1.1
2023-01-15T00:23:47.567Z,0.9
2023-01-15T00:24:56.221Z,0.9
2023-01-15T00:26:05.600Z,0.9
2023-01-15T00:27:14.606Z,1.2
2023-01-15T00:28:23.455Z,1.2
2023-01-15T00:29:32.183Z,1.2
2023-01-15T00:30:41.697Z,0.9
2023-01-15T00:31:50.270Z,0.9
2023-01-15T00:32:59.951Z,0.9
2023-01-15T00:34:08.771Z,1
2023-01-15T00:35:17.450Z,1
2023-01-15T00:36:26.284Z,1
2023-01-15T00:37:35.332Z,1.1
2023-01-15T00:38:44.938Z,1.1
2023-01-15T00:39:53.958Z,1.1
2023-01-15T00:41:04.047Z,0.6
2023-01-15T00:42:13.314Z,0.6
2023-01-15T00:43:22.249Z,0.6
2023-01-15T00:44:31.393Z,1.2
2023-01-15T00:45:39.919Z,1.2
2023-01-15T00:46:48.596Z,1.2
2023-01-15T00:47:58.342Z,1.8
2023-01-15T00:49:06.820Z,1.8
2023-01-15T00:50:15.879Z,1.8
2023-01-15T00:51:24.571Z,1.5
2023-01-15T00:52:33.948Z,1.5
2023-01-15T00:53:42.857Z,1.5
2023-01-15T00:54:52.221Z,1
2023-01-15T00:56:02.189Z,1
2023-01-15T00:57:11.421Z,1
2023-01-15T00:58:20.753Z,0.8
2023-01-15T00:59:29.664Z,0.8
2023-01-15T01:00:38.450Z,0.8
2023-01-15T01:01:47.232Z,0.8
2023-01-15T01:02:55.818Z,0.8
2023-01-15T01:04:04.281Z,0.8
2023-01-15T01:05:14.354Z,0.8
2023-01-15T01:06:23.934Z,0.8
2023-01-15T01:07:33.178Z,0.8
2023-01-15T01:08:42.180Z,1
2023-01-15T01:09:51.524Z,1
2023-01-15T01:10:59.904Z,1
2023-01-15T01:12:09.147Z,0.4
2023-01-15T01:13:17.655Z,0.4
2023-01-15T01:14:26.790Z,0.4
2023-01-15T01:15:35.676Z,1.1
2023-01-15T01:16:44.123Z,1.1
2023-01-15T01:17:52.822Z,1.1
2023-01-15T01:19:01.645Z,0.5
2023-01-15T01:20:10.366Z,0.5
2023-01-15T01:21:18.877Z,0.5
2023-01-15T01:22:28.003Z,0.4
2023-01-15T01:23:36.659Z,0.4
2023-01-15T01:24:45.774Z,0.4
2023-01-15T01:25:54.733Z,0.8
2023-01-15T01:27:03.226Z,0.8
2023-01-15T01:28:11.594Z,0.8
2023-01-15T01:29:21.166Z,1.4
2023-01-15T01:30:29.604Z,1.4
2023-01-15T01:31:38.060Z,1.4
2023-01-15T01:32:46.635Z,0.7
2023-01-15T01:33:56.231Z,0.7
2023-01-15T01:35:04.997Z,0.7
2023-01-15T01:36:15.333Z,0.9
2023-01-15T01:37:23.784Z,0.9
2023-01-15T01:38:32.296Z,0.9
2023-01-15T01:39:41.158Z,0.6
2023-01-15T01:40:49.687Z,0.6
2023-01-15T01:41:58.292Z,0.6
2023-01-15T01:43:07.366Z,1.1
2023-01-15T01:44:15.797Z,1.1
2023-01-15T01:45:24.656Z,1.1
2023-01-15T01:46:33.340Z,0.6
2023-01-15T01:47:41.752Z,0.6
2023-01-15T01:48:50.241Z,0.6
2023-01-15T01:49:59.147Z,1.5
2023-01-15T01:51:07.721Z,1.5
2023-01-15T01:52:16.513Z,1.5
2023-01-15T01:53:25.154Z,1.1
2023-01-15T01:54:33.762Z,1.1
2023-01-15T01:55:42.206Z,1.1
2023-01-15T01:56:51.025Z,0.9
2023-01-15T01:57:59.774Z,0.9
2023-01-15T01:59:08.193Z,0.9
2023-01-15T02:00:16.882Z,1.2
2023-01-15T02:01:25.391Z,1.2
2023-01-15T02:02:33.987Z,1.2
2023-01-15T02:03:42.547Z,1.4
2023-01-15T02:04:51.197Z,1.4
2023-01-15T02:05:59.690Z,1.4
2023-01-15T02:07:08.370Z,0.9
2023-01-15T02:08:16.939Z,0.9
2023-01-15T02:09:25.435Z,0.9
2023-01-15T02:10:34.223Z,1.9
2023-01-15T02:11:42.716Z,1.9
2023-01-15T02:12:51.310Z,1.9
2023-01-15T02:14:00.156Z,1.6
2023-01-15T02:15:08.695Z,1.6
2023-01-15T02:16:17.240Z,1.6
2023-01-15T02:17:25.868Z,0.7
2023-01-15T02:18:34.647Z,0.7
2023-01-15T02:19:43.132Z,0.7
2023-01-15T02:20:51.863Z,0.9
2023-01-15T02:22:00.326Z,0.9
2023-01-15T02:23:08.773Z,0.9
2023-01-15T02:24:17.759Z,1
2023-01-15T02:25:26.662Z,1
2023-01-15T02:26:35.025Z,1
2023-01-15T02:27:44.142Z,0.9
2023-01-15T02:28:52.639Z,0.9
2023-01-15T02:30:01.054Z,0.9
2023-01-15T02:31:09.829Z,0.9
2023-01-15T02:32:18.282Z,0.9
2023-01-15T02:33:26.724Z,0.9
2023-01-15T02:34:35.358Z,0.4
2023-01-15T02:35:44.003Z,0.4
2023-01-15T02:36:52.575Z,0.4
2023-01-15T02:38:01.259Z,0.9
2023-01-15T02:39:09.730Z,0.9
2023-01-15T02:40:18.139Z,0.9
2023-01-15T02:41:26.793Z,0.4
2023-01-15T02:42:35.208Z,0.4
2023-01-15T02:43:43.582Z,0.4
2023-01-15T02:44:52.206Z,0.6
2023-01-15T02:46:00.932Z,0.6
2023-01-15T02:47:09.347Z,0.6
2023-01-15T02:48:18.278Z,0.5
2023-01-15T02:49:26.712Z,0.5
2023-01-15T02:50:35.240Z,0.5
2023-01-15T02:51:43.851Z,0.4
2023-01-15T02:52:52.303Z,0.4
2023-01-15T02:54:00.716Z,0.4
2023-01-15T02:55:09.343Z,0.4
2023-01-15T02:56:17.975Z,0.4
2023-01-15T02:57:26.541Z,0.4
2023-01-15T02:58:35.250Z,1.1
2023-01-15T02:59:44.173Z,1.1
2023-01-15T03:00:52.812Z,1.1
2023-01-15T03:02:01.456Z,0.6
2023-01-15T03:03:09.773Z,0.6
2023-01-15T03:04:18.297Z,0.6
2023-01-15T03:05:27.013Z,0.5
2023-01-15T03:06:35.479Z,0.5
2023-01-15T03:07:43.992Z,0.5
2023-01-15T03:08:52.672Z,0.4
2023-01-15T03:10:01.220Z,0.4
2023-01-15T03:11:10.124Z,0.4
2023-01-15T03:12:18.733Z,0.3
2023-01-15T03:13:27.264Z,0.3
2023-01-15T03:14:35.668Z,0.3
2023-01-15T03:15:44.244Z,1.7
2023-01-15T03:16:53.018Z,1.7
2023-01-15T03:18:01.272Z,1.7
2023-01-15T03:19:10.294Z,0.5
2023-01-15T03:20:18.756Z,0.5
2023-01-15T03:21:27.355Z,0.5
2023-01-15T03:22:36.040Z,0.3
2023-01-15T03:23:44.457Z,0.3
2023-01-15T03:24:52.864Z,0.3
2023-01-15T03:26:01.512Z,0.3
2023-01-15T03:27:10.129Z,0.3
2023-01-15T03:28:18.907Z,0.3
2023-01-15T03:29:27.789Z,0.8
2023-01-15T03:30:36.427Z,0.8
2023-01-15T03:31:44.839Z,0.8
2023-01-15T03:32:53.487Z,0.4
2023-01-15T03:34:01.958Z,0.4
2023-01-15T03:35:10.551Z,0.4
2023-01-15T03:36:19.355Z,0.7
2023-01-15T03:37:27.885Z,0.7
2023-01-15T03:38:36.287Z,0.7
2023-01-15T03:39:44.889Z,0.4
2023-01-15T03:40:53.293Z,0.4
2023-01-15T03:42:01.934Z,0.4
2023-01-15T03:43:10.612Z,1.1
2023-01-15T03:44:19.072Z,1.1
2023-01-15T03:45:27.481Z,1.1
2023-01-15T03:46:36.310Z,0.4
2023-01-15T03:47:44.763Z,0.4
2023-01-15T03:48:53.136Z,0.4
2023-01-15T03:50:01.860Z,0.3
2023-01-15T03:51:10.285Z,0.3
2023-01-15T03:52:18.967Z,0.3
2023-01-15T03:53:27.606Z,0.6
2023-01-15T03:54:36.227Z,0.6
2023-01-15T03:55:44.633Z,0.6
2023-01-15T03:56:53.443Z,0.7
2023-01-15T03:58:01.933Z,0.7
2023-01-15T03:59:10.715Z,0.7
2023-01-15T04:00:19.404Z,0.4
2023-01-15T04:01:28.084Z,0.4
2023-01-15T04:02:36.466Z,0.4
2023-01-15T04:03:45.293Z,0.3
2023-01-15T04:04:53.836Z,0.3
2023-01-15T04:06:02.278Z,0.3
2023-01-15T04:07:10.967Z,1.3
2023-01-15T04:08:19.430Z,1.3
2023-01-15T04:09:27.913Z,1.3
2023-01-15T04:10:36.673Z,0.7
2023-01-15T04:11:45.367Z,0.7
2023-01-15T04:12:54.364Z,0.7
2023-01-15T04:14:03.208Z,0.4
2023-01-15T04:15:12.195Z,0.4
2023-01-15T04:16:21.062Z,0.4
2023-01-15T04:17:29.875Z,0.9
2023-01-15T04:18:38.334Z,0.9
2023-01-15T04:19:46.780Z,0.9
2023-01-15T04:20:55.465Z,0.5
2023-01-15T04:22:03.952Z,0.5
2023-01-15T04:23:12.301Z,0.5
2023-01-15T04:24:21.180Z,0.8
2023-01-15T04:25:29.795Z,0.8
2023-01-15T04:26:38.222Z,0.8
2023-01-15T04:27:46.942Z,0.3
2023-01-15T04:28:55.533Z,0.3
2023-01-15T04:30:03.993Z,0.3
2023-01-15T04:31:12.752Z,0.3
2023-01-15T04:32:21.196Z,0.3
2023-01-15T04:33:29.670Z,0.3
2023-01-15T04:34:38.337Z,0.6
2023-01-15T04:35:46.874Z,0.6
2023-01-15T04:36:55.380Z,0.6
2023-01-15T04:38:04.108Z,0.4
2023-01-15T04:39:12.636Z,0.4
2023-01-15T04:40:21.284Z,0.4
2023-01-15T04:41:30.068Z,0.3
2023-01-15T04:42:38.545Z,0.3
2023-01-15T04:43:47.033Z,0.3
2023-01-15T04:44:55.958Z,0.3
2023-01-15T04:46:04.532Z,0.3
2023-01-15T04:47:13.078Z,0.3
2023-01-15T04:48:22.005Z,0.6
2023-01-15T04:49:30.595Z,0.6
2023-01-15T04:50:40.471Z,0.6
2023-01-15T04:51:47.877Z,0.2
2023-01-15T04:52:56.325Z,0.2
2023-01-15T04:54:04.816Z,0.2
2023-01-15T04:55:13.557Z,0.3
2023-01-15T04:56:22.304Z,0.3
2023-01-15T04:57:30.824Z,0.3
2023-01-15T04:58:39.486Z,0.3
2023-01-15T04:59:48.076Z,0.3
2023-01-15T05:00:56.733Z,0.3
2023-01-15T05:02:06.718Z,0.3
2023-01-15T05:03:13.889Z,0.3
2023-01-15T05:04:22.419Z,0.3
2023-01-15T05:05:31.359Z,0.3
2023-01-15T05:06:40.863Z,0.3
2023-01-15T05:07:49.376Z,0.3
2023-01-15T05:08:58.231Z,1.2
2023-01-15T05:10:06.921Z,1.2
2023-01-15T05:11:15.394Z,1.2
2023-01-15T05:12:24.164Z,0.7
2023-01-15T05:13:32.553Z,0.7
2023-01-15T05:14:41.054Z,0.7
2023-01-15T05:15:49.962Z,0.3
2023-01-15T05:16:58.531Z,0.3
2023-01-15T05:18:07.219Z,0.3
2023-01-15T05:19:15.965Z,0.1
2023-01-15T05:20:24.416Z,0.1
2023-01-15T05:21:32.802Z,0.1
2023-01-15T05:22:41.489Z,0.3
2023-01-15T05:23:49.909Z,0.3
2023-01-15T05:24:58.286Z,0.3
2023-01-15T05:26:06.892Z,0.1
2023-01-15T05:27:15.296Z,0.1
2023-01-15T05:28:23.731Z,0.1
2023-01-15T05:29:32.295Z,0.5
2023-01-15T05:30:40.737Z,0.5
2023-01-15T05:31:49.176Z,0.5
2023-01-15T05:32:57.908Z,0.6
2023-01-15T05:34:06.304Z,0.6
2023-01-15T05:35:14.711Z,0.6
2023-01-15T05:36:23.303Z,0
2023-01-15T05:37:31.676Z,0
2023-01-15T05:38:40.065Z,0
2023-01-15T05:39:48.773Z,0.1
2023-01-15T05:40:57.148Z,0.1
2023-01-15T05:42:05.572Z,0.1
2023-01-15T05:43:14.282Z,0
2023-01-15T05:44:22.665Z,0
2023-01-15T05:45:31.028Z,0
2023-01-15T05:46:39.653Z,0
2023-01-15T05:47:48.013Z,0
2023-01-15T05:48:56.373Z,0
2023-01-15T05:50:04.989Z,0.3
2023-01-15T05:51:13.391Z,0.3
2023-01-15T05:52:21.768Z,0.3
2023-01-15T05:53:30.365Z,0
2023-01-15T05:54:38.759Z,0
2023-01-15T05:55:47.127Z,0
2023-01-15T05:56:56.031Z,0.1
2023-01-15T05:58:04.554Z,0.1
2023-01-15T05:59:12.954Z,0.1
2023-01-15T06:00:21.605Z,0.1
2023-01-15T06:01:30.089Z,0.1
2023-01-15T06:02:38.604Z,0.1
2023-01-15T06:03:47.280Z,0
2023-01-15T06:04:55.613Z,0
2023-01-15T06:06:04.012Z,0
2023-01-15T06:07:12.636Z,0
2023-01-15T06:08:21.038Z,0
2023-01-15T06:09:29.559Z,0
2023-01-15T06:10:38.041Z,0.1
2023-01-15T06:11:46.452Z,0.1
2023-01-15T06:12:54.920Z,0.1
2023-01-15T06:14:03.511Z,0.2
2023-01-15T06:15:11.957Z,0.2
2023-01-15T06:16:20.591Z,0.2
2023-01-15T06:17:29.238Z,0.4
2023-01-15T06:18:37.695Z,0.4
2023-01-15T06:19:46.084Z,0.4
2023-01-15T06:20:54.747Z,0.4
2023-01-15T06:22:03.234Z,0.4
2023-01-15T06:23:11.652Z,0.4
2023-01-15T06:24:20.313Z,0.1
2023-01-15T06:25:28.768Z,0.1
2023-01-15T06:26:37.196Z,0.1
2023-01-15T06:27:45.838Z,0
2023-01-15T06:28:54.359Z,0
2023-01-15T06:30:02.895Z,0
2023-01-15T06:31:11.711Z,1
2023-01-15T06:32:20.127Z,1
2023-01-15T06:33:28.545Z,1
2023-01-15T06:34:37.169Z,0.1
2023-01-15T06:35:45.549Z,0.1
2023-01-15T06:36:53.905Z,0.1
2023-01-15T06:38:02.509Z,0.4
2023-01-15T06:39:10.892Z,0.4
2023-01-15T06:40:19.355Z,0.4
2023-01-15T06:41:27.967Z,0
2023-01-15T06:42:36.362Z,0
2023-01-15T06:43:44.740Z,0
2023-01-15T06:44:53.342Z,0.1
2023-01-15T06:46:01.736Z,0.1
2023-01-15T06:47:10.193Z,0.1
2023-01-15T06:48:18.909Z,0.4
2023-01-15T06:49:27.323Z,0.4
2023-01-15T06:50:35.788Z,0.4
2023-01-15T06:51:44.409Z,0.1
2023-01-15T06:52:52.946Z,0.1
2023-01-15T06:54:01.433Z,0.1
2023-01-15T06:55:10.089Z,0.1
2023-01-15T06:56:18.503Z,0.1
2023-01-15T06:57:26.910Z,0.1
2023-01-15T06:58:35.584Z,0.2
2023-01-15T06:59:44.038Z,0.2
2023-01-15T07:00:52.657Z,0.2
2023-01-15T07:02:01.212Z,0.6
2023-01-15T07:03:09.796Z,0.6
2023-01-15T07:04:18.295Z,0.6
2023-01-15T07:05:26.953Z,0
2023-01-15T07:06:35.435Z,0
2023-01-15T07:07:43.838Z,0
2023-01-15T07:08:52.853Z,0.3
2023-01-15T07:10:01.300Z,0.3
2023-01-15T07:11:09.867Z,0.3
2023-01-15T07:12:18.508Z,48.900002
2023-01-15T07:13:27.009Z,48.900002
2023-01-15T07:14:35.548Z,48.900002
2023-01-15T07:15:44.433Z,0.5
2023-01-15T07:16:53.714Z,0.5
2023-01-15T07:18:02.661Z,0.5
2023-01-15T07:19:11.672Z,1.3
2023-01-15T07:20:20.848Z,1.3
2023-01-15T07:21:29.755Z,1.3
2023-01-15T07:22:38.327Z,0.7
2023-01-15T07:23:46.724Z,0.7
2023-01-15T07:24:55.607Z,0.7
2023-01-15T07:26:04.377Z,0.3
2023-01-15T07:27:12.826Z,0.3
2023-01-15T07:28:21.377Z,0.3
2023-01-15T07:29:31.445Z,0.5
2023-01-15T07:30:48.447Z,0.5
2023-01-15T07:31:58.274Z,0.5
2023-01-15T07:33:06.804Z,1.2
2023-01-15T07:34:15.164Z,1.2
2023-01-15T07:35:23.951Z,1.2
2023-01-15T07:36:33.043Z,0.6
2023-01-15T07:37:41.591Z,0.6
2023-01-15T07:38:50.006Z,0.6
2023-01-15T07:39:58.602Z,0.8
2023-01-15T07:41:07.552Z,0.8
2023-01-15T07:42:15.910Z,0.8
2023-01-15T07:43:24.536Z,1.2
2023-01-15T07:44:33.042Z,1.2
2023-01-15T07:45:41.483Z,1.2
2023-01-15T07:46:50.259Z,2.4
2023-01-15T07:47:58.692Z,2.4
2023-01-15T07:49:07.052Z,2.4
2023-01-15T07:50:15.624Z,0.5
2023-01-15T07:51:23.976Z,0.5
2023-01-15T07:52:32.352Z,0.5
2023-01-15T07:53:40.899Z,1.2
2023-01-15T07:54:49.264Z,1.2
2023-01-15T07:55:57.598Z,1.2
2023-01-15T07:57:06.510Z,0.5
2023-01-15T07:58:15.256Z,0.5
2023-01-15T07:59:29.698Z,0.5
2023-01-15T08:00:38.287Z,0.3
2023-01-15T08:01:46.843Z,0.3
2023-01-15T08:02:55.000Z,0.3
2023-01-15T08:04:03.588Z,1.9
2023-01-15T08:05:11.961Z,1.9
2023-01-15T08:06:20.306Z,1.9
2023-01-15T08:07:28.862Z,3.1
2023-01-15T08:08:37.627Z,3.1
2023-01-15T08:09:46.049Z,3.1
2023-01-15T08:10:54.607Z,2.2
2023-01-15T08:12:02.980Z,2.2
2023-01-15T08:13:11.363Z,2.2
2023-01-15T08:14:19.999Z,2.4
2023-01-15T08:15:29.578Z,2.4
2023-01-15T08:16:38.228Z,2.4
2023-01-15T08:17:47.031Z,0.4
2023-01-15T08:18:55.382Z,0.4
2023-01-15T08:20:03.823Z,0.4
2023-01-15T08:21:12.451Z,1
2023-01-15T08:22:20.875Z,1
2023-01-15T08:23:29.666Z,1
2023-01-15T08:24:38.707Z,0.5
2023-01-15T08:25:47.350Z,0.5
2023-01-15T08:26:56.018Z,0.5
2023-01-15T08:28:04.630Z,1.5
2023-01-15T08:29:12.970Z,1.5
2023-01-15T08:30:21.422Z,1.5
2023-01-15T08:31:29.981Z,0.6
2023-01-15T08:32:38.314Z,0.6
2023-01-15T08:33:46.661Z,0.6
2023-01-15T08:34:55.256Z,0.4
2023-01-15T08:36:03.605Z,0.4
2023-01-15T08:37:11.946Z,0.4
2023-01-15T08:38:20.523Z,0.8
2023-01-15T08:39:28.866Z,0.8
2023-01-15T08:40:37.217Z,0.8
2023-01-15T08:41:45.762Z,1.7
2023-01-15T08:42:55.729Z,1.7
2023-01-15T08:44:02.507Z,1.7
2023-01-15T08:45:11.106Z,1.3
2023-01-15T08:46:19.477Z,1.3
2023-01-15T08:47:28.043Z,1.3
2023-01-15T08:48:36.886Z,0.2
2023-01-15T08:49:45.234Z,0.2
2023-01-15T08:50:53.614Z,0.2
2023-01-15T08:52:11.922Z,0.9
2023-01-15T08:53:25.284Z,0.9
2023-01-15T08:54:37.817Z,0.9
2023-01-15T08:55:47.116Z,0.3
2023-01-15T08:56:55.500Z,0.3
2023-01-15T08:58:03.955Z,0.3
2023-01-15T08:59:12.941Z,9.3
2023-01-15T09:00:21.301Z,9.3
2023-01-15T09:01:29.763Z,9.3
2023-01-15T09:02:38.286Z,3.9
2023-01-15T09:03:46.638Z,3.9
2023-01-15T09:04:56.851Z,3.9
2023-01-15T09:06:05.430Z,3.4
2023-01-15T09:07:13.901Z,3.4
2023-01-15T09:08:22.137Z,3.4
2023-01-15T09:09:30.720Z,1.7
2023-01-15T09:10:39.049Z,1.7
2023-01-15T09:11:47.446Z,1.7
2023-01-15T09:12:56.034Z,0.6
2023-01-15T09:14:04.370Z,0.6
2023-01-15T09:15:12.743Z,0.6
2023-01-15T09:16:21.330Z,1.5
2023-01-15T09:17:29.675Z,1.5
2023-01-15T09:18:37.995Z,1.5
2023-01-15T09:19:46.604Z,0.4
2023-01-15T09:20:54.915Z,0.4
2023-01-15T09:22:03.267Z,0.4
2023-01-15T09:23:11.824Z,0.7
2023-01-15T09:24:20.185Z,0.7
2023-01-15T09:25:28.578Z,0.7
2023-01-15T09:26:37.143Z,0.3
2023-01-15T09:27:45.464Z,0.3
2023-01-15T09:28:53.909Z,0.3
2023-01-15T09:30:02.482Z,2.2
2023-01-15T09:31:10.887Z,2.2
2023-01-15T09:32:19.200Z,2.2
2023-01-15T09:33:27.740Z,1.1
2023-01-15T09:34:36.123Z,1.1
2023-01-15T09:35:44.468Z,1.1
2023-01-15T09:36:53.017Z,0.9
2023-01-15T09:38:01.382Z,0.9
2023-01-15T09:39:09.778Z,0.9
2023-01-15T09:40:18.310Z,1.1
2023-01-15T09:41:26.693Z,1.1
2023-01-15T09:42:35.190Z,1.1
2023-01-15T09:43:50.310Z,3.4
2023-01-15T09:44:52.151Z,3.4
2023-01-15T09:46:00.567Z,3.4
2023-01-15T09:47:09.123Z,4.5
2023-01-15T09:48:18.332Z,4.5
2023-01-15T09:49:25.841Z,4.5
2023-01-15T09:50:34.433Z,6.8
2023-01-15T09:51:42.804Z,6.8
2023-01-15T09:52:52.793Z,6.8
2023-01-15T09:54:01.419Z,3.5
2023-01-15T09:55:10.367Z,3.5
2023-01-15T09:56:18.710Z,3.5
2023-01-15T09:57:27.272Z,6.5
2023-01-15T09:58:35.614Z,6.5
2023-01-15T09:59:43.970Z,6.5
2023-01-15T10:00:52.534Z,2.2
2023-01-15T10:02:00.864Z,2.2
2023-01-15T10:03:09.256Z,2.2
2023-01-15T10:04:17.806Z,5.3
2023-01-15T10:05:26.105Z,5.3
2023-01-15T10:06:34.455Z,5.3
2023-01-15T10:07:43.015Z,3.2
2023-01-15T10:08:51.359Z,3.2
2023-01-15T10:09:59.700Z,3.2
2023-01-15T10:11:08.501Z,2.3
2023-01-15T10:12:16.928Z,2.3
2023-01-15T10:13:25.310Z,2.3
2023-01-15T10:14:33.878Z,1.7
2023-01-15T10:15:42.238Z,1.7
2023-01-15T10:16:50.580Z,1.7
2023-01-15T10:17:59.147Z,1
2023-01-15T10:19:07.510Z,1
2023-01-15T10:20:15.867Z,1
2023-01-15T10:21:24.422Z,0.9
2023-01-15T10:22:32.770Z,0.9
2023-01-15T10:23:41.124Z,0.9
2023-01-15T10:24:49.684Z,0.8
2023-01-15T10:25:58.033Z,0.8
2023-01-15T10:27:06.373Z,0.8
2023-01-15T10:28:16.718Z,1.3
2023-01-15T10:29:23.312Z,1.3
2023-01-15T10:30:31.655Z,1.3
2023-01-15T10:31:40.234Z,1.2
2023-01-15T10:33:01.341Z,1.2
2023-01-15T10:33:57.039Z,1.2
2023-01-15T10:35:05.675Z,1
2023-01-15T10:36:14.110Z,1
2023-01-15T10:37:22.565Z,1
2023-01-15T10:38:31.114Z,0.8
2023-01-15T10:39:39.601Z,0.8
2023-01-15T10:40:48.033Z,0.8
2023-01-15T10:41:56.605Z,0.3
2023-01-15T10:43:05.232Z,0.3
2023-01-15T10:44:13.584Z,0.3
2023-01-15T10:45:22.138Z,0.8
2023-01-15T10:46:30.487Z,0.8
2023-01-15T10:47:38.841Z,0.8
2023-01-15T10:48:47.389Z,1.8
2023-01-15T10:49:55.892Z,1.8
2023-01-15T10:51:04.230Z,1.8
2023-01-15T10:52:12.854Z,6.9
2023-01-15T10:53:21.224Z,6.9
2023-01-15T10:54:29.569Z,6.9
2023-01-15T10:55:38.167Z,9.5
2023-01-15T10:56:46.538Z,9.5
2023-01-15T10:58:05.401Z,9.5
2023-01-15T10:59:03.432Z,7.6
2023-01-15T11:00:11.781Z,7.6
2023-01-15T11:01:20.220Z,7.6
2023-01-15T11:02:28.815Z,2.9
2023-01-15T11:03:37.027Z,2.9
2023-01-15T11:04:45.749Z,2.9
2023-01-15T11:05:53.916Z,1.7
2023-01-15T11:07:02.253Z,1.7
2023-01-15T11:08:42.358Z,1.7
2023-01-15T11:09:19.361Z,1.2
2023-01-15T11:10:27.873Z,1.2
2023-01-15T11:11:36.362Z,1.2
2023-01-15T11:12:44.904Z,2.2
2023-01-15T11:13:53.265Z,2.2
2023-01-15T11:15:01.597Z,2.2
2023-01-15T11:16:10.178Z,1.8
2023-01-15T11:17:18.483Z,1.8
2023-01-15T11:18:26.817Z,1.8
2023-01-15T11:19:35.388Z,4.2
2023-01-15T11:20:43.724Z,4.2
2023-01-15T11:21:52.208Z,4.2
2023-01-15T11:23:00.765Z,1.5
2023-01-15T11:24:09.191Z,1.5
2023-01-15T11:25:17.570Z,1.5
2023-01-15T11:26:26.135Z,3.3
2023-01-15T11:27:34.535Z,3.3
2023-01-15T11:28:42.955Z,3.3
2023-01-15T11:29:51.609Z,2
2023-01-15T11:31:00.044Z,2
2023-01-15T11:32:08.367Z,2
2023-01-15T11:33:16.945Z,1.5
2023-01-15T11:34:25.348Z,1.5
2023-01-15T11:35:33.780Z,1.5
2023-01-15T11:36:42.325Z,0.5
2023-01-15T11:37:50.698Z,0.5
2023-01-15T11:38:59.093Z,0.5
2023-01-15T11:40:07.663Z,0.7
2023-01-15T11:41:16.005Z,0.7
2023-01-15T11:42:24.383Z,0.7
2023-01-15T11:43:33.033Z,0.5
2023-01-15T11:44:41.393Z,0.5
2023-01-15T11:45:49.744Z,0.5
2023-01-15T11:46:58.315Z,0.7
2023-01-15T11:48:06.683Z,0.7
2023-01-15T11:49:15.006Z,0.7
2023-01-15T11:50:23.577Z,1.3
2023-01-15T11:51:31.923Z,1.3
2023-01-15T11:52:40.279Z,1.3
2023-01-15T11:53:48.831Z,0.6
2023-01-15T11:54:57.199Z,0.6
2023-01-15T11:56:05.561Z,0.6
2023-01-15T11:57:14.109Z,0.6
2023-01-15T11:58:22.484Z,0.6
2023-01-15T11:59:30.856Z,0.6
2023-01-15T12:00:39.408Z,0.8
2023-01-15T12:01:47.745Z,0.8
2023-01-15T12:02:56.094Z,0.8
2023-01-15T12:04:04.834Z,2.6
2023-01-15T12:05:13.007Z,2.6
2023-01-15T12:06:21.338Z,2.6
2023-01-15T12:07:29.895Z,6.1
2023-01-15T12:08:38.235Z,6.1
2023-01-15T12:09:46.583Z,6.1
2023-01-15T12:10:55.139Z,1.6
2023-01-15T12:12:03.476Z,1.6
2023-01-15T12:13:11.846Z,1.6
2023-01-15T12:14:20.413Z,3.1
2023-01-15T12:15:28.762Z,3.1
2023-01-15T12:16:37.120Z,3.1
2023-01-15T12:17:45.724Z,2.8
2023-01-15T12:18:54.045Z,2.8
2023-01-15T12:20:02.454Z,2.8
2023-01-15T12:21:11.029Z,1.9
2023-01-15T12:22:19.375Z,1.9
2023-01-15T12:23:27.737Z,1.9
2023-01-15T12:24:36.277Z,1.4
2023-01-15T12:25:44.640Z,1.4
2023-01-15T12:26:52.972Z,1.4
2023-01-15T12:28:01.546Z,3.5
2023-01-15T12:29:09.866Z,3.5
2023-01-15T12:30:18.212Z,3.5
2023-01-15T12:31:26.809Z,2.5
2023-01-15T12:32:35.105Z,2.5
2023-01-15T12:33:43.449Z,2.5
2023-01-15T12:34:52.004Z,2.5
2023-01-15T12:36:00.369Z,2.5
2023-01-15T12:37:08.691Z,2.5
2023-01-15T12:38:17.283Z,2.6
2023-01-15T12:39:25.599Z,2.6
2023-01-15T12:40:33.931Z,2.6
2023-01-15T12:41:42.473Z,3.5
2023-01-15T12:42:50.824Z,3.5
2023-01-15T12:43:59.377Z,3.5
2023-01-15T12:45:07.944Z,50.799999
2023-01-15T12:46:16.304Z,50.799999
2023-01-15T12:47:24.626Z,50.799999
2023-01-15T12:48:33.172Z,5.5
2023-01-15T12:49:41.530Z,5.5
2023-01-15T12:50:49.902Z,5.5
2023-01-15T12:51:58.443Z,20.1
2023-01-15T12:53:06.775Z,20.1
2023-01-15T12:54:15.121Z,20.1
2023-01-15T12:55:23.683Z,6.9
2023-01-15T12:56:32.094Z,6.9
2023-01-15T12:57:40.367Z,6.9
2023-01-15T12:58:48.908Z,7.4
2023-01-15T12:59:57.257Z,7.4
2023-01-15T13:01:05.667Z,7.4
2023-01-15T13:02:14.178Z,3.3
2023-01-15T13:03:22.508Z,3.3
2023-01-15T13:04:30.859Z,3.3
2023-01-15T13:05:39.407Z,8.9
2023-01-15T13:06:47.755Z,8.9
2023-01-15T13:07:56.093Z,8.9
2023-01-15T13:09:04.647Z,8.4
2023-01-15T13:10:13.008Z,8.4
2023-01-15T13:11:21.349Z,8.4
2023-01-15T13:12:29.891Z,2
2023-01-15T13:13:38.238Z,2
2023-01-15T13:14:46.992Z,2
2023-01-15T13:15:55.153Z,3
2023-01-15T13:17:03.480Z,3
2023-01-15T13:18:11.821Z,3
2023-01-15T13:19:20.372Z,1.5
2023-01-15T13:20:28.721Z,1.5
2023-01-15T13:21:37.069Z,1.5
2023-01-15T13:22:45.630Z,1.4
2023-01-15T13:23:53.970Z,1.4
2023-01-15T13:25:02.309Z,1.4
2023-01-15T13:26:10.853Z,1.2
2023-01-15T13:27:19.187Z,1.2
2023-01-15T13:28:27.530Z,1.2
2023-01-15T13:29:36.093Z,3.2
2023-01-15T13:30:45.938Z,3.2
2023-01-15T13:31:52.884Z,3.2
2023-01-15T13:33:01.322Z,1.4
2023-01-15T13:34:09.668Z,1.4
2023-01-15T13:35:18.026Z,1.4
2023-01-15T13:36:26.575Z,0.8
2023-01-15T13:37:34.914Z,0.8
2023-01-15T13:38:43.249Z,0.8
2023-01-15T13:39:51.799Z,1.1
2023-01-15T13:41:00.151Z,1.1
2023-01-15T13:42:08.496Z,1.1
2023-01-15T13:43:17.028Z,2.5
2023-01-15T13:44:25.389Z,2.5
2023-01-15T13:45:33.750Z,2.5
2023-01-15T13:46:42.268Z,1.6
2023-01-15T13:47:50.613Z,1.6
2023-01-15T13:48:58.968Z,1.6
2023-01-15T13:50:07.522Z,1.5
2023-01-15T13:51:15.859Z,1.5
2023-01-15T13:52:24.220Z,1.5
2023-01-15T13:53:32.781Z,1.8
2023-01-15T13:54:41.169Z,1.8
2023-01-15T13:55:49.473Z,1.8
2023-01-15T13:56:58.033Z,1
2023-01-15T13:58:06.367Z,1
2023-01-15T13:59:14.713Z,1
2023-01-15T14:00:23.279Z,1.8
2023-01-15T14:01:31.750Z,1.8
2023-01-15T14:02:39.976Z,1.8
2023-01-15T14:03:48.499Z,0.8
2023-01-15T14:04:56.866Z,0.8
2023-01-15T14:06:05.205Z,0.8
2023-01-15T14:07:13.768Z,1.6
2023-01-15T14:08:22.112Z,1.6
2023-01-15T14:09:30.461Z,1.6
2023-01-15T14:10:39.028Z,0.8
2023-01-15T14:11:47.382Z,0.8
2023-01-15T14:12:55.713Z,0.8
2023-01-15T14:14:04.280Z,0.9
2023-01-15T14:15:12.625Z,0.9
2023-01-15T14:16:20.997Z,0.9
2023-01-15T14:17:29.503Z,1.1
2023-01-15T14:18:37.845Z,1.1
2023-01-15T14:19:46.192Z,1.1
2023-01-15T14:20:54.752Z,1.5
2023-01-15T14:22:03.079Z,1.5
2023-01-15T14:23:11.417Z,1.5
2023-01-15T14:24:19.972Z,5
2023-01-15T14:25:28.335Z,5
2023-01-15T14:26:36.681Z,5
2023-01-15T14:27:45.239Z,7.6
2023-01-15T14:28:53.583Z,7.6
2023-01-15T14:30:01.951Z,7.6
2023-01-15T14:31:10.503Z,5.1
2023-01-15T15:04:01.951Z,0
2023-01-15T15:05:10.302Z,0
2023-01-15T15:06:18.628Z,0
2023-01-15T15:07:27.173Z,2.6
2023-01-15T15:08:35.528Z,2.6
2023-01-15T15:09:44.111Z,2.6
2023-01-15T15:10:52.426Z,3.4
2023-01-15T15:12:00.781Z,3.4
2023-01-15T15:13:09.118Z,3.4
2023-01-15T15:14:17.664Z,3.2
2023-01-15T15:15:26.063Z,3.2
2023-01-15T15:16:34.407Z,3.2
2023-01-15T15:17:42.909Z,3.2
2023-01-15T15:18:51.245Z,3.2
2023-01-15T15:19:59.612Z,3.2
2023-01-15T15:21:08.172Z,6.7
2023-01-15T15:22:16.492Z,6.7
2023-01-15T15:23:24.845Z,6.7
2023-01-15T15:24:33.396Z,2.5
2023-01-15T15:25:41.741Z,2.5
2023-01-15T15:26:50.089Z,2.5
2023-01-15T15:27:58.642Z,3.5
2023-01-15T15:29:06.975Z,3.5
2023-01-15T15:30:15.344Z,3.5
2023-01-15T15:31:23.886Z,8.3
2023-01-15T15:32:32.221Z,8.3
2023-01-15T15:33:40.573Z,8.3
2023-01-15T15:34:49.112Z,5.1
2023-01-15T15:35:57.470Z,5.1
2023-01-15T15:37:05.805Z,5.1
2023-01-15T15:38:14.350Z,4.3
2023-01-15T15:39:22.698Z,4.3
2023-01-15T15:40:31.074Z,4.3
2023-01-15T15:41:39.582Z,3.1
2023-01-15T15:42:47.920Z,3.1
2023-01-15T15:43:56.279Z,3.1
2023-01-15T15:45:04.846Z,3
2023-01-15T15:46:13.277Z,3
2023-01-15T15:47:21.527Z,3
2023-01-15T15:48:30.083Z,3.2
2023-01-15T15:49:39.648Z,3.2
2023-01-15T15:50:46.764Z,3.2
2023-01-15T15:51:55.325Z,1.7
2023-01-15T15:53:03.681Z,1.7
2023-01-15T15:54:12.033Z,1.7
2023-01-15T15:55:20.576Z,1.4
2023-01-15T15:56:30.577Z,1.4
2023-01-15T15:57:37.253Z,1.4
2023-01-15T15:58:45.800Z,1.5
2023-01-15T15:59:54.142Z,1.5
2023-01-15T16:01:02.646Z,1.5
2023-01-15T16:02:11.208Z,3.8
2023-01-15T16:03:19.391Z,3.8
2023-01-15T16:04:27.771Z,3.8
2023-01-15T16:05:36.313Z,2.2
2023-01-15T16:06:44.646Z,2.2
2023-01-15T16:07:52.992Z,2.2
2023-01-15T16:09:01.532Z,3.6
2023-01-15T16:10:09.866Z,3.6
2023-01-15T16:11:18.230Z,3.6
2023-01-15T16:12:26.784Z,3.2
2023-01-15T16:13:35.126Z,3.2
2023-01-15T16:14:43.459Z,3.2
2023-01-15T16:15:52.078Z,2.6
2023-01-15T16:17:00.364Z,2.6
2023-01-15T16:18:08.709Z,2.6
2023-01-15T16:19:17.275Z,2.7
2023-01-15T16:20:25.622Z,2.7